createdAt,value
2018-06-27T00:00:47.453Z,5.27
2018-06-27T00:03:15.228Z,4.90
2018-06-27T00:05:42.969Z,5.37
2018-06-27T00:08:10.891Z,5.00
2018-06-27T00:10:38.596Z,4.30
2018-06-27T00:13:06.424Z,5.20
2018-06-27T00:15:34.171Z,4.03
2018-06-27T00:18:01.910Z,5.10
2018-06-27T00:20:29.707Z,4.97
2018-06-27T00:22:57.496Z,5.03
2018-06-27T00:25:26.107Z,5.00
2018-06-27T00:27:53.822Z,5.30
2018-06-27T00:30:21.529Z,4.90
2018-06-27T00:32:49.264Z,5.43
2018-06-27T00:35:16.971Z,5.00
2018-06-27T00:37:44.734Z,4.67
2018-06-27T00:40:12.479Z,4.83
2018-06-27T00:42:40.205Z,4.67
2018-06-27T00:45:08.410Z,5.00
2018-06-27T00:47:36.141Z,5.00
2018-06-27T00:50:04.033Z,4.80
2018-06-27T00:52:31.722Z,4.90
2018-06-27T00:54:59.474Z,5.10
2018-06-27T00:57:27.223Z,5.03
2018-06-27T00:59:54.994Z,5.23
2018-06-27T01:02:22.710Z,4.57
2018-06-27T01:04:50.399Z,4.30
2018-06-27T01:07:18.081Z,5.03
2018-06-27T01:09:45.754Z,5.20
2018-06-27T01:12:13.491Z,4.87
2018-06-27T01:14:41.223Z,5.20
2018-06-27T01:17:08.933Z,5.10
2018-06-27T01:19:36.651Z,4.27
2018-06-27T01:22:04.414Z,4.67
2018-06-27T01:24:32.146Z,4.97
2018-06-27T01:26:59.855Z,4.93
2018-06-27T01:29:27.598Z,5.00
2018-06-27T01:31:55.360Z,4.87
2018-06-27T01:34:23.073Z,5.20
2018-06-27T01:36:50.797Z,4.33
2018-06-27T01:39:18.481Z,4.40
2018-06-27T01:41:46.176Z,4.93
2018-06-27T01:44:13.909Z,4.53
2018-06-27T01:46:41.649Z,4.67
2018-06-27T01:49:09.440Z,4.70
2018-06-27T01:51:37.135Z,4.90
2018-06-27T01:54:04.854Z,5.20
2018-06-27T01:56:32.567Z,4.87
2018-06-27T01:59:00.266Z,4.43
2018-06-27T02:01:28.023Z,5.13
2018-06-27T02:03:55.785Z,4.43
2018-06-27T02:06:23.495Z,5.10
2018-06-27T02:08:51.176Z,4.57
2018-06-27T02:11:18.887Z,4.60
2018-06-27T02:13:46.590Z,5.27
2018-06-27T02:16:14.287Z,4.70
2018-06-27T02:18:41.988Z,4.90
2018-06-27T02:21:09.694Z,5.60
2018-06-27T02:23:37.415Z,5.37
2018-06-27T02:26:06.454Z,4.70
2018-06-27T02:28:34.128Z,5.00
2018-06-27T02:31:01.882Z,5.10
2018-06-27T02:33:29.939Z,4.63
2018-06-27T02:35:58.519Z,5.03
2018-06-27T02:38:26.748Z,5.23
2018-06-27T02:40:54.509Z,5.30
2018-06-27T02:43:22.539Z,4.40
2018-06-27T02:45:50.275Z,4.67
2018-06-27T02:48:18.027Z,5.17
2018-06-27T02:50:45.771Z,5.70
2018-06-27T02:53:13.448Z,4.80
2018-06-27T02:55:41.254Z,4.73
2018-06-27T02:58:09.005Z,5.07
2018-06-27T03:00:36.751Z,4.37
2018-06-27T03:03:04.829Z,4.80
2018-06-27T03:05:32.558Z,4.67
2018-06-27T03:08:00.274Z,5.20
2018-06-27T03:10:28.111Z,4.90
2018-06-27T03:12:55.839Z,5.07
2018-06-27T03:15:23.579Z,4.70
2018-06-27T03:17:51.261Z,4.17
2018-06-27T03:20:19.030Z,4.67
2018-06-27T03:22:46.777Z,5.27
2018-06-27T03:25:14.506Z,4.43
2018-06-27T03:27:42.555Z,4.70
2018-06-27T03:30:10.276Z,4.83
2018-06-27T03:32:38.122Z,4.70
2018-06-27T03:35:06.095Z,4.87
2018-06-27T03:37:33.789Z,4.70
2018-06-27T03:40:01.650Z,5.30
2018-06-27T03:42:29.417Z,5.00
2018-06-27T03:44:57.250Z,4.20
2018-06-27T03:47:24.955Z,4.80
2018-06-27T03:49:52.707Z,4.80
2018-06-27T03:52:20.402Z,4.70
2018-06-27T03:54:48.138Z,4.97
2018-06-27T03:57:15.850Z,5.20
2018-06-27T03:59:43.622Z,5.23
2018-06-27T04:02:11.358Z,5.10
2018-06-27T04:04:39.064Z,5.40
2018-06-27T04:07:06.791Z,5.17
2018-06-27T04:09:34.519Z,5.40
2018-06-27T04:12:02.185Z,4.63
2018-06-27T04:14:29.890Z,5.10
2018-06-27T04:16:57.659Z,5.13
2018-06-27T04:19:25.396Z,5.70
2018-06-27T04:21:53.139Z,5.60
2018-06-27T04:24:20.863Z,5.73
2018-06-27T04:26:48.574Z,5.23
2018-06-27T04:29:16.289Z,5.40
2018-06-27T04:31:44.007Z,5.37
2018-06-27T04:34:11.726Z,6.80
2018-06-27T04:36:39.819Z,6.00
2018-06-27T04:39:09.204Z,6.10
2018-06-27T04:41:37.189Z,6.40
2018-06-27T04:44:04.919Z,6.23
2018-06-27T04:46:32.950Z,6.63
2018-06-27T04:49:00.774Z,6.73
2018-06-27T04:51:28.694Z,6.30
2018-06-27T04:53:56.498Z,6.07
2018-06-27T04:56:24.617Z,5.87
2018-06-27T04:58:53.491Z,6.60
2018-06-27T05:01:21.468Z,7.10
2018-06-27T05:03:49.152Z,7.07
2018-06-27T05:06:16.869Z,7.43
2018-06-27T05:08:44.795Z,7.07
2018-06-27T05:11:12.772Z,7.47
2018-06-27T05:13:40.530Z,7.47
2018-06-27T05:16:08.283Z,7.60
2018-06-27T05:18:35.991Z,7.30
2018-06-27T05:21:03.754Z,7.83
2018-06-27T05:23:31.687Z,8.43
2018-06-27T05:25:59.395Z,7.57
2018-06-27T05:28:27.109Z,7.57
2018-06-27T05:30:55.106Z,7.37
2018-06-27T05:33:22.849Z,9.07
2018-06-27T05:35:50.659Z,9.10
2018-06-27T05:38:18.411Z,8.00
2018-06-27T05:40:46.083Z,8.73
2018-06-27T05:43:14.201Z,8.90
2018-06-27T05:45:41.974Z,8.63
2018-06-27T05:48:09.729Z,8.13
2018-06-27T05:50:37.550Z,8.90
2018-06-27T05:53:05.487Z,8.97
2018-06-27T05:55:33.217Z,8.47
2018-06-27T05:58:01.000Z,8.73
2018-06-27T06:00:28.735Z,8.33
2018-06-27T06:02:56.431Z,9.07
2018-06-27T06:05:24.156Z,9.53
2018-06-27T06:07:51.914Z,9.70
2018-06-27T06:10:19.632Z,9.20
2018-06-27T06:12:47.358Z,8.87
2018-06-27T06:15:15.183Z,9.63
2018-06-27T06:17:42.905Z,9.37
2018-06-27T06:20:10.638Z,8.77
2018-06-27T06:22:38.388Z,8.63
2018-06-27T06:25:06.105Z,10.50
2018-06-27T06:27:33.808Z,10.37
2018-06-27T06:30:01.531Z,9.97
2018-06-27T06:32:29.314Z,11.50
2018-06-27T06:34:56.966Z,10.73
2018-06-27T06:37:24.726Z,10.20
2018-06-27T06:39:52.420Z,10.17
2018-06-27T06:42:20.108Z,9.80
2018-06-27T06:44:47.815Z,10.83
2018-06-27T06:47:15.526Z,10.33
2018-06-27T06:49:43.221Z,10.97
2018-06-27T06:52:11.015Z,11.20
2018-06-27T06:54:38.668Z,10.37
2018-06-27T06:57:06.399Z,9.33
2018-06-27T06:59:34.091Z,10.37
2018-06-27T07:02:01.836Z,11.13
2018-06-27T07:04:29.569Z,10.53
2018-06-27T07:06:57.294Z,12.20
2018-06-27T07:09:25.448Z,11.03
2018-06-27T07:11:53.169Z,11.57
2018-06-27T07:14:20.925Z,10.30
2018-06-27T07:16:48.637Z,8.97
2018-06-27T07:19:16.422Z,9.93
2018-06-27T07:21:44.116Z,10.90
2018-06-27T07:24:11.901Z,10.97
2018-06-27T07:26:39.635Z,10.87
2018-06-27T07:29:07.533Z,11.07
2018-06-27T07:31:35.250Z,11.80
2018-06-27T07:34:03.026Z,10.20
2018-06-27T07:36:30.803Z,12.43
2018-06-27T07:38:58.512Z,12.47
2018-06-27T07:41:26.618Z,10.20
2018-06-27T07:43:54.404Z,10.83
2018-06-27T07:46:22.177Z,11.53
2018-06-27T07:48:50.098Z,11.50
2018-06-27T07:51:17.839Z,10.97
2018-06-27T07:53:45.565Z,11.77
2018-06-27T07:56:13.364Z,11.80
2018-06-27T07:58:41.110Z,10.60
2018-06-27T08:01:08.867Z,11.40
2018-06-27T08:03:37.556Z,11.00
2018-06-27T08:06:05.373Z,12.73
2018-06-27T08:08:33.170Z,12.70
2018-06-27T08:11:00.942Z,12.23
2018-06-27T08:13:28.825Z,12.77
2018-06-27T08:15:57.585Z,11.17
2018-06-27T08:18:25.375Z,12.73
2018-06-27T08:20:53.108Z,11.20
2018-06-27T08:23:20.896Z,12.53
2018-06-27T08:25:51.415Z,13.07
2018-06-27T08:30:55.365Z,14.10
2018-06-27T08:33:23.079Z,13.00
2018-06-27T08:35:50.789Z,13.67
2018-06-27T08:38:18.543Z,13.80
2018-06-27T08:40:46.323Z,13.40
2018-06-27T08:43:14.101Z,11.40
2018-06-27T08:45:41.819Z,13.57
2018-06-27T08:48:09.950Z,11.17
2018-06-27T08:50:37.826Z,13.60
2018-06-27T08:53:05.899Z,12.50
2018-06-27T08:55:33.882Z,14.73
2018-06-27T08:58:01.638Z,13.47
2018-06-27T09:00:29.354Z,11.10
2018-06-27T09:02:57.113Z,12.23
2018-06-27T09:05:25.022Z,13.90
2018-06-27T09:07:52.728Z,14.07
2018-06-27T09:10:20.479Z,13.07
2018-06-27T09:12:48.254Z,13.30
2018-06-27T09:15:16.018Z,13.43
2018-06-27T09:17:43.744Z,14.60
2018-06-27T09:20:11.450Z,12.33
2018-06-27T09:22:39.210Z,13.13
2018-06-27T09:25:06.986Z,13.55
2018-06-27T09:27:34.723Z,12.20
2018-06-27T09:30:02.475Z,13.10
2018-06-27T09:32:30.247Z,13.78
2018-06-27T09:34:57.924Z,14.10
2018-06-27T09:37:25.675Z,11.18
2018-06-27T09:39:53.363Z,13.00
2018-06-27T09:42:21.064Z,13.98
2018-06-27T09:44:48.821Z,14.35
2018-06-27T09:47:16.524Z,12.80
2018-06-27T09:49:44.961Z,13.32
2018-06-27T09:52:12.659Z,13.53
2018-06-27T09:54:41.184Z,14.07
2018-06-27T09:57:11.123Z,13.48
2018-06-27T09:59:38.945Z,13.10
2018-06-27T10:02:06.763Z,15.32
2018-06-27T10:04:34.459Z,14.98
2018-06-27T10:07:02.467Z,14.40
2018-06-27T10:09:30.182Z,14.85
2018-06-27T10:11:57.919Z,13.32
2018-06-27T10:14:25.619Z,13.40
2018-06-27T10:16:53.458Z,14.73
2018-06-27T10:19:21.098Z,13.75
2018-06-27T10:21:48.807Z,14.03
2018-06-27T10:24:16.521Z,13.43
2018-06-27T10:26:44.289Z,14.95
2018-06-27T10:29:11.982Z,14.05
2018-06-27T10:31:39.856Z,12.63
2018-06-27T10:34:08.869Z,12.65
2018-06-27T10:36:36.802Z,11.55
2018-06-27T10:39:08.049Z,12.78
2018-06-27T10:41:36.166Z,13.98
2018-06-27T10:44:04.058Z,12.88
2018-06-27T10:46:32.294Z,12.85
2018-06-27T10:49:00.418Z,12.82
2018-06-27T10:51:28.567Z,13.15
2018-06-27T10:53:57.342Z,12.80
2018-06-27T10:56:25.444Z,13.25
2018-06-27T10:58:53.422Z,13.08
2018-06-27T11:01:21.499Z,12.18
2018-06-27T11:03:50.256Z,13.50
2018-06-27T11:06:18.693Z,13.62
2018-06-27T11:08:46.867Z,12.07
2018-06-27T11:11:14.802Z,13.35
2018-06-27T11:13:42.809Z,12.25
2018-06-27T11:16:10.761Z,13.25
2018-06-27T11:18:39.259Z,11.43
2018-06-27T11:21:07.793Z,12.13
2018-06-27T11:23:35.689Z,10.38
2018-06-27T11:26:04.007Z,11.40
2018-06-27T11:28:31.933Z,11.03
2018-06-27T11:31:00.510Z,11.53
2018-06-27T11:33:28.889Z,11.28
2018-06-27T11:35:57.408Z,11.80
2018-06-27T11:38:25.409Z,11.53
2018-06-27T11:40:53.238Z,11.43
2018-06-27T11:43:21.270Z,10.60
2018-06-27T11:45:49.619Z,10.72
2018-06-27T11:48:17.487Z,11.12
2018-06-27T11:50:45.252Z,10.65
2018-06-27T11:53:13.093Z,9.28
2018-06-27T11:55:40.951Z,9.23
2018-06-27T11:58:09.299Z,10.23
2018-06-27T12:00:37.626Z,9.13
2018-06-27T12:03:05.422Z,8.03
2018-06-27T12:05:37.686Z,9.08
2018-06-27T12:08:05.491Z,9.30
2018-06-27T12:10:33.363Z,7.78
2018-06-27T12:13:01.142Z,9.78
2018-06-27T12:15:30.054Z,10.00
2018-06-27T12:17:58.402Z,11.68
2018-06-27T12:20:26.174Z,11.53
2018-06-27T12:22:53.958Z,9.15
2018-06-27T12:25:22.016Z,10.23
2018-06-27T12:27:49.838Z,10.23
2018-06-27T12:30:20.463Z,9.08
2018-06-27T12:32:48.660Z,7.28
2018-06-27T12:35:17.569Z,8.20
2018-06-27T12:37:45.657Z,7.42
2018-06-27T12:40:13.473Z,6.17
2018-06-27T12:42:41.211Z,6.50
2018-06-27T12:45:09.711Z,5.55
2018-06-27T12:47:37.546Z,6.20
2018-06-27T12:50:07.817Z,7.00
2018-06-27T12:52:35.984Z,6.20
2018-06-27T12:55:06.081Z,7.75
2018-06-27T12:57:34.775Z,5.87
2018-06-27T13:00:03.237Z,6.80
2018-06-27T13:02:31.486Z,7.55
2018-06-27T13:04:59.892Z,5.10
2018-06-27T13:07:27.636Z,5.45
2018-06-27T13:09:55.614Z,5.00
2018-06-27T13:12:23.385Z,5.47
2018-06-27T13:14:51.791Z,5.15
2018-06-27T13:17:20.175Z,4.60
2018-06-27T13:19:48.577Z,5.62
2018-06-27T13:22:17.060Z,4.95
2018-06-27T13:24:44.918Z,5.08
2018-06-27T13:27:12.987Z,4.97
2018-06-27T13:29:40.958Z,4.50
2018-06-27T13:32:08.934Z,5.08
2018-06-27T13:34:36.861Z,4.28
2018-06-27T13:37:05.052Z,4.50
2018-06-27T13:39:33.671Z,4.65
2018-06-27T13:42:01.536Z,4.62
2018-06-27T13:44:29.993Z,4.35
2018-06-27T13:46:58.683Z,3.90
2018-06-27T13:49:28.187Z,4.12
2018-06-27T13:51:56.728Z,5.55
2018-06-27T13:54:25.554Z,4.95
2018-06-27T13:56:53.506Z,4.60
2018-06-27T13:59:22.264Z,4.08
2018-06-27T14:01:50.179Z,3.70
2018-06-27T14:04:18.128Z,3.77
2018-06-27T14:06:46.354Z,4.53
2018-06-27T14:09:14.393Z,3.87
2018-06-27T14:11:42.206Z,3.90
2018-06-27T14:14:10.634Z,3.30
2018-06-27T14:16:39.111Z,3.20
2018-06-27T14:19:07.523Z,4.15
2018-06-27T14:21:35.296Z,4.15
2018-06-27T14:24:04.433Z,3.92
2018-06-27T14:26:35.106Z,3.58
2018-06-27T14:29:03.750Z,3.95
2018-06-27T14:31:32.281Z,4.25
2018-06-27T14:34:00.098Z,4.33
2018-06-27T14:36:28.279Z,4.40
2018-06-27T14:38:56.095Z,4.20
2018-06-27T14:41:24.756Z,4.70
2018-06-27T14:43:52.665Z,4.45
2018-06-27T14:46:20.622Z,4.33
2018-06-27T14:48:48.505Z,4.00
2018-06-27T14:51:16.209Z,4.28
2018-06-27T14:53:46.865Z,4.10
2018-06-27T14:56:14.578Z,4.35
2018-06-27T14:58:42.383Z,4.95
2018-06-27T15:01:10.191Z,4.50
2018-06-27T15:03:37.976Z,5.03
2018-06-27T15:06:07.574Z,5.25
2018-06-27T15:08:35.336Z,4.05
2018-06-27T15:11:03.127Z,4.45
2018-06-27T15:13:30.960Z,4.70
2018-06-27T15:15:58.989Z,4.83
2018-06-27T15:18:27.450Z,4.40
2018-06-27T15:20:55.232Z,5.15
2018-06-27T15:23:24.569Z,4.75
2018-06-27T15:25:53.538Z,5.22
2018-06-27T15:28:22.536Z,5.85
2018-06-27T15:30:51.295Z,4.97
2018-06-27T15:33:19.800Z,5.97
2018-06-27T15:35:47.720Z,5.28
2018-06-27T15:38:15.495Z,5.53
2018-06-27T15:40:43.535Z,6.33
2018-06-27T15:43:12.603Z,5.72
2018-06-27T15:45:40.395Z,6.87
2018-06-27T15:48:08.257Z,5.45
2018-06-27T15:50:36.051Z,5.70
2018-06-27T15:53:03.945Z,5.00
2018-06-27T15:55:31.815Z,5.72
2018-06-27T15:57:59.588Z,6.15
2018-06-27T16:00:27.321Z,5.80
2018-06-27T16:02:55.085Z,7.65
2018-06-27T16:05:22.951Z,5.90
2018-06-27T16:07:52.134Z,5.50
2018-06-27T16:10:20.608Z,5.30
2018-06-27T16:12:48.500Z,5.95
2018-06-27T16:15:16.934Z,6.72
2018-06-27T16:17:46.811Z,5.30
2018-06-27T16:20:14.841Z,4.85
2018-06-27T16:22:42.658Z,5.62
2018-06-27T16:25:10.966Z,6.25
2018-06-27T16:27:39.263Z,5.05
2018-06-27T16:30:07.516Z,5.60
2018-06-27T16:32:36.024Z,5.00
2018-06-27T16:35:04.284Z,4.92
2018-06-27T16:37:32.202Z,5.17
2018-06-27T16:39:59.963Z,5.50
2018-06-27T16:42:27.803Z,5.28
2018-06-27T16:44:55.648Z,6.33
2018-06-27T16:47:23.439Z,6.20
2018-06-27T16:49:51.228Z,9.30
2018-06-27T16:52:18.989Z,6.03
2018-06-27T16:54:47.491Z,5.15
2018-06-27T16:57:15.348Z,6.92
2018-06-27T16:59:44.091Z,5.87
2018-06-27T17:02:11.912Z,5.62
2018-06-27T17:04:39.763Z,5.42
2018-06-27T17:07:07.711Z,5.42
2018-06-27T17:09:35.571Z,5.55
2018-06-27T17:12:03.507Z,5.10
2018-06-27T17:14:31.770Z,5.42
2018-06-27T17:17:00.189Z,5.28
2018-06-27T17:19:28.156Z,6.03
2018-06-27T17:21:57.092Z,5.72
2018-06-27T17:24:25.623Z,6.28
2018-06-27T17:26:53.714Z,5.37
2018-06-27T17:29:21.532Z,4.35
2018-06-27T17:31:49.372Z,4.40
2018-06-27T17:34:17.254Z,4.60
2018-06-27T17:36:45.091Z,4.62
2018-06-27T17:39:13.909Z,4.20
2018-06-27T17:41:42.864Z,3.52
2018-06-27T17:44:10.751Z,3.22
2018-06-27T17:46:38.708Z,3.50
2018-06-27T17:49:06.693Z,3.30
2018-06-27T17:51:34.695Z,4.00
2018-06-27T17:54:02.959Z,3.35
2018-06-27T17:56:31.555Z,3.10
2018-06-27T17:58:59.384Z,3.30
2018-06-27T18:01:27.313Z,3.42
2018-06-27T18:03:55.553Z,3.00
2018-06-27T18:06:23.379Z,2.62
2018-06-27T18:08:51.350Z,2.77
2018-06-27T18:11:19.450Z,2.87
2018-06-27T18:13:47.263Z,2.92
2018-06-27T18:16:15.198Z,2.47
2018-06-27T18:18:42.998Z,2.75
2018-06-27T18:21:11.406Z,2.70
2018-06-27T18:23:39.814Z,3.02
2018-06-27T18:26:07.800Z,2.83
2018-06-27T18:28:35.688Z,2.77
2018-06-27T18:31:04.975Z,3.00
2018-06-27T18:33:32.814Z,2.98
2018-06-27T18:36:01.958Z,3.02
2018-06-27T18:38:29.800Z,3.25
2018-06-27T18:40:58.136Z,3.27
2018-06-27T18:43:26.098Z,3.62
2018-06-27T18:45:54.764Z,3.77
2018-06-27T18:48:22.693Z,3.55
2018-06-27T18:50:50.610Z,3.58
2018-06-27T18:53:19.902Z,3.62
2018-06-27T18:55:47.880Z,4.00
2018-06-27T18:58:16.755Z,3.50
2018-06-27T19:00:46.423Z,3.40
2018-06-27T19:03:14.730Z,2.90
2018-06-27T19:05:43.215Z,2.90
2018-06-27T19:08:11.654Z,2.80
2018-06-27T19:10:39.535Z,2.60
2018-06-27T19:13:07.525Z,2.45
2018-06-27T19:15:36.017Z,2.30
2018-06-27T19:18:04.972Z,2.22
2018-06-27T19:20:32.728Z,2.47
2018-06-27T19:23:00.551Z,2.20
2018-06-27T19:25:28.325Z,2.10
2018-06-27T19:27:56.978Z,2.25
2018-06-27T19:30:25.866Z,2.35
2018-06-27T19:32:54.397Z,2.55
2018-06-27T19:35:22.666Z,2.52
2018-06-27T19:37:51.623Z,2.47
2018-06-27T19:40:19.401Z,2.52
2018-06-27T19:42:47.347Z,3.15
2018-06-27T19:45:15.203Z,2.83
2018-06-27T19:47:43.072Z,2.70
2018-06-27T19:50:10.875Z,2.92
2018-06-27T19:52:38.674Z,2.80
2018-06-27T19:55:06.782Z,2.90
2018-06-27T19:57:34.540Z,2.90
2018-06-27T20:00:02.262Z,2.80
2018-06-27T20:02:30.133Z,2.65
2018-06-27T20:04:58.774Z,2.60
2018-06-27T20:07:26.853Z,2.77
2018-06-27T20:09:55.391Z,3.00
2018-06-27T20:12:23.222Z,2.70
2018-06-27T20:14:51.788Z,3.10
2018-06-27T20:17:19.830Z,2.80
2018-06-27T20:19:49.259Z,2.77
2018-06-27T20:22:17.245Z,2.80
2018-06-27T20:24:48.751Z,2.90
2018-06-27T20:27:17.494Z,2.80
2018-06-27T20:29:45.728Z,2.80
2018-06-27T20:32:13.653Z,2.80
2018-06-27T20:34:41.607Z,2.53
2018-06-27T20:37:09.453Z,2.63
2018-06-27T20:39:37.158Z,3.23
2018-06-27T20:42:05.332Z,3.20
2018-06-27T20:44:33.264Z,3.33
2018-06-27T20:47:01.029Z,3.07
2018-06-27T20:49:28.790Z,2.90
2018-06-27T20:51:56.559Z,3.63
2018-06-27T20:54:24.637Z,3.20
2018-06-27T20:56:52.393Z,3.47
2018-06-27T20:59:20.551Z,3.40
2018-06-27T21:01:48.428Z,3.50
2018-06-27T21:04:16.154Z,4.10
2018-06-27T21:06:43.897Z,4.67
2018-06-27T21:09:11.832Z,4.50
2018-06-27T21:11:39.567Z,4.90
2018-06-27T21:14:07.427Z,4.60
2018-06-27T21:16:35.169Z,4.70
2018-06-27T21:19:02.882Z,5.10
2018-06-27T21:21:31.601Z,5.43
2018-06-27T21:23:59.303Z,5.83
2018-06-27T21:26:27.093Z,5.20
2018-06-27T21:28:54.876Z,6.13
2018-06-27T21:31:23.014Z,5.90
2018-06-27T21:33:50.891Z,6.70
2018-06-27T21:36:18.989Z,6.07
2018-06-27T21:38:47.082Z,5.70
2018-06-27T21:41:14.826Z,6.37
2018-06-27T21:43:42.594Z,5.83
2018-06-27T21:46:10.419Z,6.73
2018-06-27T21:48:38.467Z,6.40
2018-06-27T21:51:06.277Z,6.87
2018-06-27T21:53:33.980Z,6.33
2018-06-27T21:56:01.749Z,5.80
2018-06-27T21:58:29.492Z,5.90
2018-06-27T22:00:57.319Z,6.20
2018-06-27T22:03:25.070Z,6.70
2018-06-27T22:05:52.827Z,6.23
2018-06-27T22:08:20.575Z,6.33
2018-06-27T22:10:48.337Z,6.70
2018-06-27T22:13:17.190Z,6.37
2018-06-27T22:15:44.933Z,6.53
2018-06-27T22:18:12.782Z,6.33
2018-06-27T22:20:40.515Z,6.40
2018-06-27T22:23:08.283Z,5.50
2018-06-27T22:25:35.999Z,6.30
2018-06-27T22:28:03.728Z,6.07
2018-06-27T22:30:31.520Z,5.93
2018-06-27T22:32:59.230Z,6.30
2018-06-27T22:35:27.016Z,5.90
2018-06-27T22:37:54.746Z,5.10
2018-06-27T22:40:22.462Z,5.97
2018-06-27T22:42:50.200Z,6.47
2018-06-27T22:45:17.962Z,6.17
2018-06-27T22:47:45.763Z,5.93
2018-06-27T22:50:13.672Z,6.27
2018-06-27T22:52:41.465Z,5.60
2018-06-27T22:55:09.308Z,6.03
2018-06-27T22:57:37.013Z,6.50
2018-06-27T23:00:05.269Z,5.77
2018-06-27T23:02:32.936Z,6.07
2018-06-27T23:05:00.726Z,5.90
2018-06-27T23:07:29.006Z,6.37
2018-06-27T23:09:56.775Z,6.33
2018-06-27T23:12:24.483Z,6.87
2018-06-27T23:14:52.223Z,6.40
2018-06-27T23:17:20.030Z,6.97
2018-06-27T23:19:47.765Z,6.27
2018-06-27T23:22:32.986Z,6.10
2018-06-27T23:25:00.717Z,6.63
2018-06-27T23:27:28.581Z,6.77
2018-06-27T23:29:56.250Z,6.70
2018-06-27T23:32:25.096Z,5.83
2018-06-27T23:34:52.830Z,6.33
2018-06-27T23:37:20.579Z,6.47
2018-06-27T23:39:48.300Z,6.50
2018-06-27T23:42:15.984Z,6.13
2018-06-27T23:44:43.658Z,6.80
2018-06-27T23:47:11.534Z,7.00
2018-06-27T23:49:39.279Z,5.57
2018-06-27T23:52:06.990Z,6.83
2018-06-27T23:54:34.700Z,5.70
2018-06-27T23:57:02.428Z,7.13
2018-06-27T23:59:30.134Z,6.37
